Lenktynių santrauka (Trasa: Montreal | Sezonas: 17 | Lenktynės: 17 | Grupė: Master - 4)

Sezonas:  Lenktynės:

Pasirinkti kitą grupę:

Poz Progresas Padangos Šalis Žaidėjo vardas Lenktynių laikas Ratų skaičius Sustojimai Geriausias ratas Vidutinis greitis Geriausias sustojimo laikas
01. +6 +6 Dunnolop   Hanna Hesp 1h33:23.654 69 3 1:18.792 195.94km/h 20.263s
02. +12 +12 Yokomama   Phil Dutoy + 18.862 69 3 1:18.996 195.29km/h 16.948s
03. -1 -1 Dunnolop   Paul Lynch + 21.888 69 2 1:19.045 195.18km/h 14.547s
04. Be pasikeitimo ±0 Dunnolop   Akroamidis Nikos + 56.095 69 2 1:20.419 194.00km/h 16.739s
05. -2 -2 Dunnolop   Kostas Farsalinos + 1:51.703 68 2 1:20.958 192.11km/h 19.983s
06. +13 +13 Pipirelli   Bartłomiej Grałek + 1:52.833 68 2 1:20.306 192.08km/h 22.834s
07. +3 +3 Dunnolop   Nikolay Ivanov + 2:11.450 68 2 1:21.447 191.45km/h 15.130s
08. -3 -3 Dunnolop   Philipp Hartmann + 2:21.018 68 2 1:21.079 191.13km/h 14.926s
09. +9 +9 Pipirelli   Andrea Zennaro + 2:43.958 67 3 1:20.618 190.37km/h 17.562s
10. +1 +1 Dunnolop   Nathan Middap + 2:48.177 67 2 1:20.470 190.23km/h 23.587s
11. +14 +14 Dunnolop   Carlos Alves + 2:48.519 67 2 1:20.958 190.22km/h 22.763s
12. -6 -6 Dunnolop   Ermin Covic + 2:49.053 67 2 1:21.400 190.21km/h 16.099s
13. -4 -4 Yokomama   Anatole Zheloudkov + 2:54.074 67 3 1:20.907 190.04km/h 21.664s
14. +1 +1 Dunnolop   Sven Vehent + 3:05.094 67 2 1:22.024 189.68km/h 19.182s
15. +1 +1 Yokomama   Mindaugas Lesciauskas + 3:39.174 67 3 1:19.639 188.57km/h 22.635s
16. +1 +1 Pipirelli   Paschalis Bozos + 3:53.132 67 3 1:21.614 188.12km/h 20.951s
17. +5 +5 Yokomama   Miron Zdebiak + 4:08.796 66 2 1:22.058 187.61km/h 19.294s
18. +3 +3 Yokomama   Christian Hartmannsgruber + 4:18.876 66 1 1:22.597 187.29km/h 27.859s
19. +9 +9 Yokomama   Kashvinder Mann + 4:39.420 66 3 1:21.850 186.64km/h 21.642s
20. -12 -12 Dunnolop   Craig Templeman + 4:58.840 66 2 1:21.386 186.02km/h 19.902s
21. +8 +8 Dunnolop   Marco Aguiar + 6:13.118 65 2 1:23.528 183.71km/h 19.637s
22. -10 -10 Dunnolop   Lucas Secundo Abreu + 6:13.370 65 3 1:22.475 183.70km/h 17.617s
23. -10 -10 Dunnolop   Orintas Stasiunas + 6:55.822 64 3 1:22.810 182.41km/h 17.314s
24. +8 +8 Pipirelli   Miguel Aroso + 7:29.589 64 2 1:25.064 181.39km/h 20.403s
Neklasifikuoti   (112% lenktynių laiko: +11:12.438s)
25. -24 -24 Yokomama   Mark Webster Techniniai gedimai 51 3 1:19.367    15.762s
26. +9 +9 Dunnolop   Tim Anle Techniniai gedimai 47 21 1:28.553    20.465s
27. Be pasikeitimo ±0 Pipirelli   Pauli Käkelä Techniniai gedimai 38 1 1:24.191    16.284s
28. -8 -8 Yokomama   Jarno Markku Techniniai gedimai 30 1 1:22.970    21.086s
29. +1 +1 Dunnolop   Jake Stothard Techniniai gedimai 28 1 1:22.147    21.491s
30. +1 +1 Pipirelli   Dzintars Bušs Techniniai gedimai 28 0 1:26.512    -
31. +3 +3 Dunnolop   Rodrigo Almeida Borges Techniniai gedimai 26 1 1:22.441    19.550s
32. +1 +1 Dunnolop   Leonardo Bittencourt Techniniai gedimai 25 1 1:25.805    26.407s
33. -10 -10 Yokomama   Nikola Kolev Techniniai gedimai 19 2 1:20.958    20.815s
34. -10 -10 Yokomama   Stefan Coors Techniniai gedimai 16 2 1:23.940    23.811s
35. -9 -9 Dunnolop   Renato Svaiter Avarija starte 0 0 -    -